createdAt,value
2023-08-06T00:00:50.346Z,14.65
2023-08-06T00:03:17.727Z,13.85
2023-08-06T00:05:45.107Z,13.77
2023-08-06T00:08:12.331Z,13.93
2023-08-06T00:10:44.229Z,16.90
2023-08-06T00:13:12.832Z,17.75
2023-08-06T00:15:41.389Z,15.85
2023-08-06T00:18:08.232Z,15.05
2023-08-06T00:20:35.512Z,14.57
2023-08-06T00:23:03.415Z,15.73
2023-08-06T00:25:30.225Z,15.23
2023-08-06T00:27:57.536Z,15.68
2023-08-06T00:30:24.832Z,16.00
2023-08-06T00:32:54.969Z,16.45
2023-08-06T00:35:22.779Z,16.52
2023-08-06T00:37:49.969Z,15.10
2023-08-06T00:40:17.233Z,19.27
2023-08-06T00:42:46.158Z,16.65
2023-08-06T00:45:12.963Z,16.77
2023-08-06T00:47:41.852Z,16.80
2023-08-06T00:50:09.453Z,16.92
2023-08-06T00:52:37.429Z,16.50
2023-08-06T00:55:06.775Z,17.70
2023-08-06T00:57:42.875Z,16.83
2023-08-06T01:00:12.584Z,16.48
2023-08-06T01:02:39.913Z,17.00
2023-08-06T01:05:07.271Z,15.95
2023-08-06T01:07:56.682Z,17.10
2023-08-06T01:10:54.797Z,18.25
2023-08-06T01:13:33.820Z,17.73
2023-08-06T01:16:02.102Z,20.60
2023-08-06T01:18:29.325Z,17.33
2023-08-06T01:20:56.462Z,15.90
2023-08-06T01:23:24.161Z,17.42
2023-08-06T01:26:10.034Z,17.15
2023-08-06T01:28:43.968Z,17.25
2023-08-06T01:31:13.740Z,16.92
2023-08-06T01:33:43.486Z,16.67
2023-08-06T01:36:11.103Z,18.95
2023-08-06T01:38:38.276Z,17.25
2023-08-06T01:41:05.444Z,18.13
2023-08-06T01:43:32.843Z,17.23
2023-08-06T01:46:00.051Z,17.15
2023-08-06T01:48:27.709Z,17.75
2023-08-06T01:50:54.885Z,17.48
2023-08-06T01:53:22.107Z,18.95
2023-08-06T01:55:49.852Z,18.15
2023-08-06T01:58:16.878Z,16.58
2023-08-06T02:00:44.099Z,15.80
2023-08-06T02:03:11.474Z,16.77
2023-08-06T02:05:38.672Z,16.70
2023-08-06T02:08:07.367Z,17.60
2023-08-06T02:10:34.709Z,16.77
2023-08-06T02:13:01.946Z,16.48
2023-08-06T02:15:29.256Z,16.23
2023-08-06T02:17:56.570Z,17.35
2023-08-06T02:20:27.120Z,21.35
2023-08-06T02:22:55.790Z,17.95
2023-08-06T02:25:22.752Z,18.05
2023-08-06T02:27:49.946Z,19.17
2023-08-06T02:30:17.120Z,16.98
2023-08-06T02:32:44.283Z,18.23
2023-08-06T02:35:11.457Z,15.95
2023-08-06T02:37:38.779Z,18.70
2023-08-06T02:40:06.238Z,19.05
2023-08-06T02:42:33.463Z,19.40
2023-08-06T02:45:00.725Z,18.73
2023-08-06T02:47:29.761Z,20.42
2023-08-06T02:49:56.801Z,18.95
2023-08-06T02:52:24.647Z,17.27
2023-08-06T02:54:52.432Z,18.15
2023-08-06T02:57:19.672Z,18.05
2023-08-06T02:59:49.118Z,19.05
2023-08-06T03:02:19.820Z,19.33
2023-08-06T03:07:30.279Z,19.25
2023-08-06T03:10:05.236Z,17.13
2023-08-06T03:12:33.538Z,17.60
2023-08-06T03:15:02.521Z,18.83
2023-08-06T03:17:30.173Z,18.65
2023-08-06T03:19:56.952Z,18.63
2023-08-06T03:22:25.339Z,23.02
2023-08-06T03:24:52.937Z,17.85
2023-08-06T03:27:22.296Z,18.48
2023-08-06T03:29:54.875Z,17.80
2023-08-06T03:32:24.657Z,17.33
2023-08-06T03:34:52.390Z,17.30
2023-08-06T03:37:20.322Z,19.02
2023-08-06T03:39:47.567Z,17.67
2023-08-06T03:42:15.234Z,19.05
2023-08-06T03:44:42.453Z,16.65
2023-08-06T03:47:10.880Z,16.50
2023-08-06T03:49:38.042Z,20.02
2023-08-06T03:52:08.912Z,19.55
2023-08-06T03:54:36.456Z,14.52
2023-08-06T03:57:06.688Z,17.35
2023-08-06T03:59:36.083Z,19.38
2023-08-06T04:02:03.946Z,17.60
2023-08-06T04:04:31.186Z,15.70
2023-08-06T04:06:58.462Z,16.63
2023-08-06T04:09:25.702Z,16.75
2023-08-06T04:11:53.410Z,17.50
2023-08-06T04:14:20.751Z,15.90
2023-08-06T04:16:51.003Z,17.58
2023-08-06T04:19:20.406Z,18.88
2023-08-06T04:21:47.672Z,16.08
2023-08-06T04:24:14.452Z,16.95
2023-08-06T04:26:41.617Z,16.70
2023-08-06T04:29:10.822Z,17.02
2023-08-06T04:31:39.150Z,15.73
2023-08-06T04:34:06.767Z,15.65
2023-08-06T04:36:34.017Z,16.05
2023-08-06T04:39:01.201Z,15.25
2023-08-06T04:41:29.016Z,16.90
2023-08-06T04:43:56.189Z,16.27
2023-08-06T04:46:28.823Z,14.85
2023-08-06T04:48:55.968Z,16.13
2023-08-06T04:51:23.086Z,16.05
2023-08-06T04:53:50.260Z,17.95
2023-08-06T04:56:17.446Z,19.45
2023-08-06T04:58:44.576Z,15.15
2023-08-06T05:01:11.846Z,16.33
2023-08-06T05:03:39.145Z,17.42
2023-08-06T05:06:06.434Z,17.20
2023-08-06T05:08:33.675Z,18.63
2023-08-06T05:11:00.838Z,17.05
2023-08-06T05:13:28.088Z,16.70
2023-08-06T05:15:55.595Z,20.48
2023-08-06T05:18:22.795Z,19.38
2023-08-06T05:20:50.039Z,16.83
2023-08-06T05:23:17.852Z,17.23
2023-08-06T05:25:45.178Z,18.25
2023-08-06T05:28:12.430Z,17.33
2023-08-06T05:30:42.842Z,17.45
2023-08-06T05:33:10.230Z,16.42
2023-08-06T05:35:37.420Z,15.98
2023-08-06T05:38:07.782Z,18.55
2023-08-06T05:40:35.778Z,17.83
2023-08-06T05:43:03.048Z,17.02
2023-08-06T05:45:30.270Z,18.10
2023-08-06T05:47:59.548Z,18.65
2023-08-06T05:50:26.940Z,20.10
2023-08-06T05:52:54.373Z,16.70
2023-08-06T05:55:24.215Z,18.35
2023-08-06T05:57:53.549Z,17.77
2023-08-06T06:00:21.157Z,17.63
2023-08-06T06:02:48.354Z,19.40
2023-08-06T06:05:15.702Z,18.60
2023-08-06T06:07:42.862Z,17.55
2023-08-06T06:10:10.229Z,17.38
2023-08-06T06:12:37.363Z,18.98
2023-08-06T06:15:04.658Z,17.70
2023-08-06T06:17:31.932Z,18.70
2023-08-06T06:20:01.735Z,18.05
2023-08-06T06:22:29.619Z,18.88
2023-08-06T06:24:59.470Z,19.05
2023-08-06T06:27:26.675Z,18.25
2023-08-06T06:29:55.558Z,18.52
2023-08-06T06:32:23.192Z,18.88
2023-08-06T06:34:50.504Z,18.85
2023-08-06T06:37:17.642Z,21.20
2023-08-06T06:39:45.686Z,20.42
2023-08-06T06:42:37.234Z,19.33
2023-08-06T06:45:08.154Z,17.90
2023-08-06T06:47:37.612Z,18.83
2023-08-06T06:50:10.166Z,22.55
2023-08-06T06:52:37.023Z,19.73
2023-08-06T06:55:04.284Z,18.98
2023-08-06T06:57:31.111Z,19.67
2023-08-06T06:59:58.242Z,18.52
2023-08-06T07:02:25.457Z,20.52
2023-08-06T07:04:52.225Z,20.77
2023-08-06T07:07:25.915Z,22.05
2023-08-06T07:09:53.058Z,20.63
2023-08-06T07:12:20.602Z,19.10
2023-08-06T07:14:48.003Z,19.73
2023-08-06T07:17:15.252Z,21.25
2023-08-06T07:19:42.366Z,21.73
2023-08-06T07:22:09.534Z,19.90
2023-08-06T07:24:36.756Z,19.83
2023-08-06T07:27:04.144Z,19.58
2023-08-06T07:29:30.955Z,20.17
2023-08-06T07:31:58.139Z,19.45
2023-08-06T07:34:25.000Z,18.48
2023-08-06T07:37:03.762Z,19.02
2023-08-06T07:39:31.058Z,19.25
2023-08-06T07:41:58.546Z,20.65
2023-08-06T07:44:25.443Z,21.77
2023-08-06T07:46:55.704Z,17.67
2023-08-06T07:49:23.366Z,18.17
2023-08-06T07:51:50.627Z,20.00
2023-08-06T07:54:17.883Z,18.60
2023-08-06T07:56:45.091Z,18.33
2023-08-06T07:59:12.250Z,20.30
2023-08-06T08:01:39.442Z,20.83
2023-08-06T08:04:08.344Z,22.70
2023-08-06T08:06:35.817Z,20.17
2023-08-06T08:09:03.079Z,19.90
2023-08-06T08:11:29.891Z,20.15
2023-08-06T08:13:58.775Z,21.73
2023-08-06T08:16:26.053Z,19.13
2023-08-06T08:18:52.841Z,19.85
2023-08-06T08:21:20.577Z,19.83
2023-08-06T08:23:47.361Z,20.52
2023-08-06T08:26:14.535Z,19.73
2023-08-06T08:28:41.326Z,19.65
2023-08-06T08:31:12.599Z,19.15
2023-08-06T08:33:42.210Z,20.70
2023-08-06T08:36:10.864Z,20.55
2023-08-06T08:38:38.142Z,16.13
2023-08-06T08:41:05.084Z,19.73
2023-08-06T08:43:32.650Z,17.90
2023-08-06T08:46:00.588Z,18.52
2023-08-06T08:48:28.127Z,17.90
2023-08-06T08:50:55.364Z,16.75
2023-08-06T08:53:33.473Z,18.65
2023-08-06T08:56:00.952Z,12.93
2023-08-06T08:58:28.095Z,18.67
2023-08-06T09:00:55.440Z,17.45
2023-08-06T09:03:22.701Z,16.13
2023-08-06T09:05:51.700Z,16.02
2023-08-06T09:08:20.492Z,15.93
2023-08-06T09:10:50.766Z,16.52
2023-08-06T09:13:17.999Z,15.68
2023-08-06T09:15:45.614Z,17.58
2023-08-06T09:18:13.557Z,17.88
2023-08-06T09:20:40.965Z,16.83
2023-08-06T09:23:12.002Z,16.10
2023-08-06T09:25:42.050Z,16.52
2023-08-06T09:28:09.541Z,15.38
2023-08-06T09:30:38.609Z,17.08
2023-08-06T09:33:15.421Z,18.48
2023-08-06T09:35:42.311Z,19.27
2023-08-06T09:38:11.977Z,17.85
2023-08-06T09:40:39.554Z,17.25
2023-08-06T09:43:07.143Z,13.88
2023-08-06T09:45:35.623Z,16.60
2023-08-06T09:48:06.708Z,15.43
2023-08-06T09:50:34.864Z,17.00
2023-08-06T09:53:02.405Z,15.30
2023-08-06T09:55:29.916Z,14.85
2023-08-06T09:57:57.393Z,16.42
2023-08-06T10:00:24.711Z,13.25
2023-08-06T10:02:55.873Z,16.65
2023-08-06T10:05:24.161Z,16.50
2023-08-06T10:07:55.035Z,18.50
2023-08-06T10:10:22.406Z,17.23
2023-08-06T10:12:55.812Z,17.58
2023-08-06T10:15:28.128Z,14.02
2023-08-06T10:17:59.976Z,14.98
2023-08-06T10:20:27.200Z,14.23
2023-08-06T10:23:08.719Z,14.25
2023-08-06T10:25:36.919Z,14.02
2023-08-06T10:28:12.543Z,11.93
2023-08-06T10:30:51.227Z,12.27
2023-08-06T10:33:22.075Z,13.43
2023-08-06T10:35:51.096Z,10.40
2023-08-06T10:38:27.186Z,7.45
2023-08-06T10:40:57.004Z,6.45
2023-08-06T10:43:31.470Z,4.32
2023-08-06T10:46:00.774Z,3.05
2023-08-06T10:48:52.571Z,4.38
2023-08-06T10:51:37.657Z,6.40
2023-08-06T10:54:05.105Z,7.07
2023-08-06T10:56:39.225Z,5.68
2023-08-06T10:59:07.857Z,6.80
2023-08-06T11:01:36.448Z,7.50
2023-08-06T11:04:06.264Z,5.45
2023-08-06T11:06:34.738Z,6.20
2023-08-06T11:09:02.961Z,5.45
2023-08-06T11:11:31.202Z,7.43
2023-08-06T11:13:58.418Z,4.10
2023-08-06T11:16:26.358Z,5.68
2023-08-06T11:18:57.977Z,4.05
2023-08-06T11:21:28.047Z,4.35
2023-08-06T11:23:55.401Z,4.28
2023-08-06T11:26:24.333Z,4.05
2023-08-06T11:28:51.777Z,3.28
2023-08-06T11:31:23.349Z,4.90
2023-08-06T11:33:54.194Z,6.65
2023-08-06T11:36:41.480Z,5.35
2023-08-06T11:39:08.978Z,6.32
2023-08-06T11:41:40.720Z,5.88
2023-08-06T11:44:08.136Z,5.63
2023-08-06T11:46:56.851Z,4.60
2023-08-06T11:49:45.102Z,4.57
2023-08-06T11:52:12.978Z,3.58
2023-08-06T11:54:40.337Z,8.40
2023-08-06T11:57:07.988Z,6.53
2023-08-06T11:59:35.246Z,5.22
2023-08-06T12:02:15.263Z,4.40
2023-08-06T12:05:02.904Z,3.22
2023-08-06T12:07:31.947Z,5.72
2023-08-06T12:09:59.413Z,5.72
2023-08-06T12:12:26.935Z,4.45
2023-08-06T12:14:54.310Z,5.68
2023-08-06T12:17:21.600Z,5.32
2023-08-06T12:19:48.869Z,3.88
2023-08-06T12:22:16.382Z,4.97
2023-08-06T12:24:44.346Z,3.85
2023-08-06T12:27:11.986Z,4.75
2023-08-06T12:29:43.747Z,3.17
2023-08-06T12:32:11.503Z,4.63
2023-08-06T12:34:52.105Z,5.00
2023-08-06T12:37:20.907Z,4.80
2023-08-06T12:39:48.590Z,4.60
2023-08-06T12:42:15.816Z,5.15
2023-08-06T12:44:42.986Z,4.22
2023-08-06T12:47:10.402Z,6.18
2023-08-06T12:49:37.696Z,4.82
2023-08-06T12:52:07.543Z,5.72
2023-08-06T12:54:37.954Z,4.47
2023-08-06T12:57:05.726Z,4.68
2023-08-06T12:59:34.118Z,4.60
2023-08-06T13:02:02.337Z,4.07
2023-08-06T13:04:29.995Z,5.22
2023-08-06T13:06:57.389Z,6.40
2023-08-06T13:09:29.709Z,4.03
2023-08-06T13:12:03.071Z,4.65
2023-08-06T13:14:50.217Z,3.90
2023-08-06T13:17:17.415Z,3.63
2023-08-06T13:19:44.738Z,4.72
2023-08-06T13:22:11.563Z,4.07
2023-08-06T13:24:38.774Z,3.65
2023-08-06T13:27:05.641Z,4.93
2023-08-06T13:29:32.810Z,4.90
2023-08-06T13:32:00.009Z,5.47
2023-08-06T13:34:34.112Z,5.40
2023-08-06T13:37:01.375Z,4.97
2023-08-06T13:39:28.580Z,4.38
2023-08-06T13:41:55.769Z,4.03
2023-08-06T13:44:22.902Z,4.45
2023-08-06T13:46:52.506Z,7.30
2023-08-06T13:49:19.909Z,4.30
2023-08-06T13:51:47.096Z,3.60
2023-08-06T13:54:14.304Z,4.75
2023-08-06T13:56:41.499Z,3.88
2023-08-06T13:59:09.350Z,5.63
2023-08-06T14:01:49.008Z,4.75
2023-08-06T14:04:18.185Z,6.68
2023-08-06T14:06:45.698Z,4.53
2023-08-06T14:09:15.187Z,5.70
2023-08-06T14:11:42.482Z,6.70
2023-08-06T14:14:09.645Z,4.90
2023-08-06T14:16:36.911Z,4.68
2023-08-06T14:19:04.679Z,3.95
2023-08-06T14:21:32.127Z,5.95
2023-08-06T14:23:59.505Z,4.72
2023-08-06T14:26:26.752Z,5.93
2023-08-06T14:28:55.797Z,4.68
2023-08-06T14:31:24.137Z,8.02
2023-08-06T14:33:51.339Z,5.15
2023-08-06T14:36:18.536Z,5.53
2023-08-06T14:38:57.701Z,5.22
2023-08-06T14:41:26.706Z,3.85
2023-08-06T14:43:55.149Z,4.75
2023-08-06T14:46:22.538Z,4.30
2023-08-06T14:48:49.917Z,5.80
2023-08-06T14:51:21.374Z,4.35
2023-08-06T14:53:49.478Z,6.18
2023-08-06T14:56:16.829Z,6.00
2023-08-06T14:58:44.094Z,5.03
2023-08-06T15:01:11.400Z,5.53
2023-08-06T15:03:38.740Z,7.05
2023-08-06T15:06:09.035Z,6.05
2023-08-06T15:08:36.225Z,9.13
2023-08-06T15:11:06.639Z,7.47
2023-08-06T15:13:33.827Z,7.00
2023-08-06T15:16:01.017Z,5.18
2023-08-06T15:18:28.523Z,7.97
2023-08-06T15:20:56.277Z,7.85
2023-08-06T15:23:23.554Z,3.30
2023-08-06T15:25:51.286Z,5.18
2023-08-06T15:28:18.551Z,5.47
2023-08-06T15:30:50.841Z,8.13
2023-08-06T15:33:19.642Z,5.38
2023-08-06T15:35:47.060Z,3.60
2023-08-06T15:38:17.640Z,3.05
2023-08-06T15:40:46.659Z,3.67
2023-08-06T15:43:14.374Z,2.85
2023-08-06T15:45:44.870Z,4.68
2023-08-06T15:50:40.523Z,5.30
2023-08-06T15:53:08.368Z,9.85
2023-08-06T15:55:38.638Z,7.22
2023-08-06T15:58:06.385Z,5.65
2023-08-06T16:00:36.229Z,4.32
2023-08-06T16:03:06.752Z,5.75
2023-08-06T16:05:35.913Z,2.05
2023-08-06T16:08:03.333Z,6.22
2023-08-06T16:10:31.558Z,4.15
2023-08-06T16:12:58.845Z,6.28
2023-08-06T16:15:26.166Z,3.42
2023-08-06T16:17:53.460Z,2.13
2023-08-06T16:20:20.777Z,2.58
2023-08-06T16:22:48.126Z,4.60
2023-08-06T16:25:15.904Z,6.30
2023-08-06T16:27:43.174Z,5.10
2023-08-06T16:30:10.653Z,3.63
2023-08-06T16:32:38.332Z,2.60
2023-08-06T16:35:12.281Z,3.85
2023-08-06T16:37:39.937Z,4.03
2023-08-06T16:40:07.470Z,10.02
2023-08-06T16:42:34.928Z,6.43
2023-08-06T16:45:06.933Z,5.57
2023-08-06T16:47:34.193Z,3.80
2023-08-06T16:50:01.498Z,3.53
2023-08-06T16:52:29.240Z,6.53
2023-08-06T16:54:56.329Z,4.25
2023-08-06T16:57:23.489Z,4.20
2023-08-06T16:59:51.911Z,2.13
2023-08-06T17:02:19.117Z,7.15
2023-08-06T17:04:49.068Z,5.07
2023-08-06T17:07:16.228Z,3.60
2023-08-06T17:09:43.489Z,5.55
2023-08-06T17:12:10.713Z,3.60
2023-08-06T17:14:37.886Z,7.07
2023-08-06T17:17:05.449Z,6.55
2023-08-06T17:19:32.673Z,2.70
2023-08-06T17:22:00.123Z,4.70
2023-08-06T17:24:27.309Z,3.38
2023-08-06T17:26:59.556Z,4.50
2023-08-06T17:29:28.990Z,4.40
2023-08-06T17:31:56.542Z,3.53
2023-08-06T17:34:24.281Z,2.95
2023-08-06T17:36:51.718Z,4.15
2023-08-06T17:39:19.626Z,1.88
2023-08-06T17:41:48.059Z,3.88
2023-08-06T17:44:15.705Z,5.93
2023-08-06T17:46:43.027Z,3.38
2023-08-06T17:49:10.180Z,5.20
2023-08-06T17:51:37.537Z,6.13
2023-08-06T17:54:10.322Z,6.75
2023-08-06T17:56:37.814Z,3.38
2023-08-06T17:59:05.004Z,4.88
2023-08-06T18:01:32.564Z,4.53
2023-08-06T18:03:59.873Z,3.45
2023-08-06T18:06:27.412Z,3.95
2023-08-06T18:08:54.726Z,6.18
2023-08-06T18:11:22.246Z,4.60
2023-08-06T18:13:53.042Z,4.85
2023-08-06T18:16:20.452Z,3.45
2023-08-06T18:22:03.769Z,7.32
2023-08-06T18:24:33.612Z,8.68
2023-08-06T18:27:01.139Z,3.92
2023-08-06T18:29:29.220Z,4.70
2023-08-06T18:31:56.828Z,8.30
2023-08-06T18:34:24.171Z,8.40
2023-08-06T18:36:51.461Z,7.85
2023-08-06T18:39:21.501Z,6.53
2023-08-06T18:44:47.444Z,10.25
2023-08-06T18:47:24.802Z,6.45
2023-08-06T18:52:34.636Z,6.53
2023-08-06T18:55:01.935Z,8.07
2023-08-06T18:57:30.755Z,8.23
2023-08-06T18:59:59.382Z,5.68
2023-08-06T19:02:26.873Z,3.95
2023-08-06T19:04:55.721Z,8.23
2023-08-06T19:07:23.271Z,7.70
2023-08-06T19:09:50.462Z,5.35
2023-08-06T19:12:21.799Z,7.05
2023-08-06T19:14:49.544Z,5.30
2023-08-06T19:17:18.987Z,7.82
2023-08-06T19:19:46.562Z,6.05
2023-08-06T19:22:14.092Z,4.70
2023-08-06T19:24:41.662Z,6.70
2023-08-06T19:27:09.120Z,5.20
2023-08-06T19:29:36.499Z,5.00
2023-08-06T19:32:07.955Z,4.28
2023-08-06T19:34:35.924Z,6.82
2023-08-06T19:37:04.462Z,5.30
2023-08-06T19:39:31.745Z,5.60
2023-08-06T19:41:59.189Z,3.70
2023-08-06T19:44:27.560Z,3.90
2023-08-06T19:46:56.593Z,6.30
2023-08-06T19:49:24.016Z,7.30
2023-08-06T19:51:51.238Z,7.68
2023-08-06T19:54:19.075Z,4.55
2023-08-06T19:56:46.518Z,10.57
2023-08-06T19:59:13.725Z,12.32
2023-08-06T20:01:40.961Z,7.65
2023-08-06T20:04:08.199Z,6.90
2023-08-06T20:06:35.488Z,7.55
2023-08-06T20:09:02.776Z,7.75
2023-08-06T20:11:31.450Z,7.72
2023-08-06T20:13:59.468Z,9.10
2023-08-06T20:16:26.737Z,4.70
2023-08-06T20:18:56.441Z,8.38
2023-08-06T20:21:26.524Z,9.27
2023-08-06T20:23:53.868Z,7.38
2023-08-06T20:26:21.975Z,9.30
2023-08-06T20:28:58.292Z,8.05
2023-08-06T20:31:29.612Z,6.93
2023-08-06T20:33:56.847Z,5.20
2023-08-06T20:36:24.808Z,6.43
2023-08-06T20:38:56.327Z,6.22
2023-08-06T20:41:23.563Z,10.25
2023-08-06T20:43:50.842Z,4.82
2023-08-06T20:46:20.921Z,7.68
2023-08-06T20:48:48.145Z,10.90
2023-08-06T20:51:15.324Z,7.72
2023-08-06T20:53:43.605Z,5.80
2023-08-06T20:56:11.526Z,10.57
2023-08-06T20:58:39.953Z,8.50
2023-08-06T21:01:07.790Z,9.13
2023-08-06T21:03:35.992Z,6.40
2023-08-06T21:06:06.182Z,7.72
2023-08-06T21:08:36.073Z,7.40
2023-08-06T21:11:04.002Z,6.03
2023-08-06T21:13:31.245Z,5.38
2023-08-06T21:16:02.825Z,7.97
2023-08-06T21:18:33.747Z,9.73
2023-08-06T21:21:01.732Z,7.72
2023-08-06T21:23:31.024Z,6.97
2023-08-06T21:25:59.515Z,8.43
2023-08-06T21:28:27.467Z,8.77
2023-08-06T21:31:00.808Z,7.93
2023-08-06T21:33:32.110Z,7.75
2023-08-06T21:36:02.529Z,7.72
2023-08-06T21:38:30.056Z,7.10
2023-08-06T21:41:07.700Z,6.45
2023-08-06T21:43:35.690Z,5.97
2023-08-06T21:46:04.219Z,5.70
2023-08-06T21:48:33.877Z,9.20
2023-08-06T21:51:01.729Z,3.75
2023-08-06T21:53:30.432Z,4.30
2023-08-06T21:55:59.528Z,5.70
2023-08-06T21:58:27.137Z,7.40
2023-08-06T22:00:54.639Z,3.83
2023-08-06T22:03:22.002Z,5.70
2023-08-06T22:05:49.310Z,4.50
2023-08-06T22:08:18.024Z,4.95
2023-08-06T22:10:48.015Z,9.05
2023-08-06T22:13:15.239Z,6.40
2023-08-06T22:15:42.361Z,5.45
2023-08-06T22:18:09.534Z,8.35
2023-08-06T22:20:39.361Z,4.00
2023-08-06T22:23:06.555Z,5.00
2023-08-06T22:25:33.706Z,3.10
2023-08-06T22:28:00.937Z,7.15
2023-08-06T22:30:28.205Z,7.25
2023-08-06T22:32:55.751Z,4.90
2023-08-06T22:35:23.859Z,5.57
2023-08-06T22:37:51.229Z,5.88
2023-08-06T22:40:19.013Z,3.03
2023-08-06T22:42:46.418Z,5.82
2023-08-06T22:45:14.031Z,5.22
2023-08-06T22:47:41.845Z,5.25
2023-08-06T22:50:09.729Z,10.65
2023-08-06T22:52:37.416Z,6.78
2023-08-06T22:57:39.405Z,7.72
2023-08-06T23:00:09.601Z,8.48
2023-08-06T23:02:39.285Z,7.63
2023-08-06T23:05:07.150Z,11.27
2023-08-06T23:07:34.482Z,6.47
2023-08-06T23:10:04.290Z,9.27
2023-08-06T23:12:31.533Z,9.10
2023-08-06T23:15:00.684Z,10.52
2023-08-06T23:17:27.895Z,11.35
2023-08-06T23:19:57.377Z,15.32
2023-08-06T23:22:27.392Z,9.30
2023-08-06T23:24:54.177Z,7.22
2023-08-06T23:27:21.594Z,9.75
2023-08-06T23:29:48.805Z,11.63
2023-08-06T23:32:18.801Z,8.20
2023-08-06T23:34:53.704Z,7.13
2023-08-06T23:37:21.545Z,10.80
2023-08-06T23:39:53.961Z,7.88
2023-08-06T23:42:24.224Z,11.05
2023-08-06T23:44:51.878Z,5.68
2023-08-06T23:47:19.796Z,12.77
2023-08-06T23:49:47.095Z,4.32
2023-08-06T23:52:15.831Z,4.13
2023-08-06T23:54:43.342Z,6.80
2023-08-06T23:57:10.576Z,9.15
2023-08-06T23:59:37.822Z,7.47
